Allen, Washington
Current Conditions -  °F | °C
As of 3:00 PM on Friday 31 Oct 2014 (Local Time) from KBLI Reporting Station
Overcast Overcast  
Wind Chill: 52°   Ceiling: 2700
Heat Index: 52°   Visibility: 10mi
Dew Point: 48°   Wind: 6mph
Humidity: 88%   Direction: 170°S
Pressure: 29.81"   Gusts: NA
Location:  48.5689°N, 122.407°W
Report Text: KBLI 312200Z 17005KT 10SM FEW012 OVC027 11/09 A2981 RMK AO2 RAE2154
Loading
Personal Weather Stations






























Interactive Weather Map New forecast layout! Learn more

10-Day Weather Forecast

Advertisements
Track Severe Weather on mobile